sensor_id;sensor_type;location;lat;lon;timestamp;pressure;altitude;pressure_sealevel;temperature;humidity
51468;BME280;37545;45.302;-122.946;2023-04-27T00:01:59;101209.03;;;27.92;27.66
51468;BME280;37545;45.302;-122.946;2023-04-27T00:04:28;101225.94;;;27.90;28.56
51468;BME280;37545;45.302;-122.946;2023-04-27T00:06:57;101217.25;;;27.85;29.05
51468;BME280;37545;45.302;-122.946;2023-04-27T00:09:25;101218.31;;;27.79;28.71
51468;BME280;37545;45.302;-122.946;2023-04-27T00:11:54;101214.06;;;27.73;30.87
51468;BME280;37545;45.302;-122.946;2023-04-27T00:14:23;101208.00;;;27.70;29.90
51468;BME280;37545;45.302;-122.946;2023-04-27T00:16:54;101208.00;;;27.70;30.08
51468;BME280;37545;45.302;-122.946;2023-04-27T00:19:24;101212.44;;;27.69;29.43
51468;BME280;37545;45.302;-122.946;2023-04-27T00:21:53;101211.66;;;27.67;29.20
51468;BME280;37545;45.302;-122.946;2023-04-27T00:24:23;101217.13;;;27.63;29.01
51468;BME280;37545;45.302;-122.946;2023-04-27T00:26:52;101204.78;;;27.60;29.26
51468;BME280;37545;45.302;-122.946;2023-04-27T00:29:20;101212.91;;;27.55;29.73
51468;BME280;37545;45.302;-122.946;2023-04-27T00:31:49;101203.31;;;27.51;29.73
51468;BME280;37545;45.302;-122.946;2023-04-27T00:34:17;101207.13;;;27.44;29.25
51468;BME280;37545;45.302;-122.946;2023-04-27T00:36:48;101199.38;;;27.36;29.84
51468;BME280;37545;45.302;-122.946;2023-04-27T00:39:16;101204.88;;;27.30;29.56
51468;BME280;37545;45.302;-122.946;2023-04-27T00:41:45;101199.78;;;27.24;29.37
51468;BME280;37545;45.302;-122.946;2023-04-27T00:44:21;101188.47;;;27.17;30.58
51468;BME280;37545;45.302;-122.946;2023-04-27T00:49:19;101189.63;;;27.09;30.75
51468;BME280;37545;45.302;-122.946;2023-04-27T00:51:50;101192.44;;;27.04;29.33
51468;BME280;37545;45.302;-122.946;2023-04-27T00:54:19;101192.59;;;27.00;29.82
51468;BME280;37545;45.302;-122.946;2023-04-27T00:56:48;101192.69;;;26.97;30.06
51468;BME280;37545;45.302;-122.946;2023-04-27T00:59:18;101186.63;;;26.91;30.47
51468;BME280;37545;45.302;-122.946;2023-04-27T01:01:47;101193.81;;;26.89;30.85
51468;BME280;37545;45.302;-122.946;2023-04-27T01:04:16;101195.69;;;26.86;30.77
51468;BME280;37545;45.302;-122.946;2023-04-27T01:06:56;101196.69;;;26.82;30.88
51468;BME280;37545;45.302;-122.946;2023-04-27T01:09:25;101197.66;;;26.79;30.79
51468;BME280;37545;45.302;-122.946;2023-04-27T01:12:00;101192.44;;;26.76;31.64
51468;BME280;37545;45.302;-122.946;2023-04-27T01:14:28;101193.41;;;26.73;31.24
51468;BME280;37545;45.302;-122.946;2023-04-27T01:16:57;101200.47;;;26.73;31.21
51468;BME280;37545;45.302;-122.946;2023-04-27T01:19:26;101197.94;;;26.70;31.69
51468;BME280;37545;45.302;-122.946;2023-04-27T01:21:57;101187.41;;;26.67;30.95
51468;BME280;37545;45.302;-122.946;2023-04-27T01:24:27;101188.38;;;26.64;31.07
51468;BME280;37545;45.302;-122.946;2023-04-27T01:26:56;101199.94;;;26.62;32.09
51468;BME280;37545;45.302;-122.946;2023-04-27T01:29:25;101196.50;;;26.60;32.69
51468;BME280;37545;45.302;-122.946;2023-04-27T01:31:53;101197.50;;;26.56;32.47
51468;BME280;37545;45.302;-122.946;2023-04-27T01:34:22;101201.97;;;26.52;32.68
51468;BME280;37545;45.302;-122.946;2023-04-27T01:36:51;101202.09;;;26.47;32.58
51468;BME280;37545;45.302;-122.946;2023-04-27T01:39:19;101204.03;;;26.42;32.61
51468;BME280;37545;45.302;-122.946;2023-04-27T01:41:50;101195.28;;;26.39;32.44
51468;BME280;37545;45.302;-122.946;2023-04-27T01:44:18;101194.50;;;26.37;33.25
51468;BME280;37545;45.302;-122.946;2023-04-27T01:46:49;101194.63;;;26.32;34.02
51468;BME280;37545;45.302;-122.946;2023-04-27T01:49:17;101191.28;;;26.25;33.33
51468;BME280;37545;45.302;-122.946;2023-04-27T01:51:46;101192.31;;;26.20;33.60
51468;BME280;37545;45.302;-122.946;2023-04-27T01:54:15;101186.38;;;26.11;33.59
51468;BME280;37545;45.302;-122.946;2023-04-27T01:56:44;101184.72;;;26.07;33.60
51468;BME280;37545;45.302;-122.946;2023-04-27T01:59:14;101179.47;;;26.04;33.12
51468;BME280;37545;45.302;-122.946;2023-04-27T02:01:42;101191.97;;;26.01;33.54
51468;BME280;37545;45.302;-122.946;2023-04-27T02:04:11;101190.31;;;25.97;33.25
51468;BME280;37545;45.302;-122.946;2023-04-27T02:06:40;101189.53;;;25.93;33.08
51468;BME280;37545;45.302;-122.946;2023-04-27T02:09:09;101183.53;;;25.85;33.60
51468;BME280;37545;45.302;-122.946;2023-04-27T02:11:37;101182.81;;;25.78;33.35
51468;BME280;37545;45.302;-122.946;2023-04-27T02:14:14;101189.16;;;25.73;36.01
51468;BME280;37545;45.302;-122.946;2023-04-27T02:16:43;101187.63;;;25.64;33.32
51468;BME280;37545;45.302;-122.946;2023-04-27T02:19:11;101198.41;;;25.56;34.12
51468;BME280;37545;45.302;-122.946;2023-04-27T02:21:40;101184.47;;;25.49;33.59
51468;BME280;37545;45.302;-122.946;2023-04-27T02:24:09;101186.34;;;25.44;34.09
51468;BME280;37545;45.302;-122.946;2023-04-27T02:26:38;101194.47;;;25.38;33.93
51468;BME280;37545;45.302;-122.946;2023-04-27T02:29:06;101193.75;;;25.32;37.56
51468;BME280;37545;45.302;-122.946;2023-04-27T02:31:37;101185.19;;;25.20;34.87
51468;BME280;37545;45.302;-122.946;2023-04-27T02:34:05;101189.81;;;25.11;34.75
51468;BME280;37545;45.302;-122.946;2023-04-27T02:36:34;101189.19;;;24.99;35.00
51468;BME280;37545;45.302;-122.946;2023-04-27T02:39:03;101194.59;;;24.95;34.79
51468;BME280;37545;45.302;-122.946;2023-04-27T02:41:32;101188.69;;;24.83;35.54
51468;BME280;37545;45.302;-122.946;2023-04-27T02:44:01;101180.13;;;24.72;36.13
51468;BME280;37545;45.302;-122.946;2023-04-27T02:46:29;101192.53;;;24.69;35.16
51468;BME280;37545;45.302;-122.946;2023-04-27T02:49:00;101197.97;;;24.62;35.50
51468;BME280;37545;45.302;-122.946;2023-04-27T02:51:28;101193.69;;;24.55;35.74
51468;BME280;37545;45.302;-122.946;2023-04-27T02:53:57;101197.38;;;24.48;36.13
51468;BME280;37545;45.302;-122.946;2023-04-27T02:56:25;101201.88;;;24.41;36.00
51468;BME280;37545;45.302;-122.946;2023-04-27T02:58:54;101207.31;;;24.35;36.33
51468;BME280;37545;45.302;-122.946;2023-04-27T03:01:23;101206.56;;;24.29;36.38
51468;BME280;37545;45.302;-122.946;2023-04-27T03:03:51;101201.41;;;24.22;36.19
51468;BME280;37545;45.302;-122.946;2023-04-27T03:06:22;101202.44;;;24.15;36.75
51468;BME280;37545;45.302;-122.946;2023-04-27T03:08:51;101212.25;;;24.09;37.35
51468;BME280;37545;45.302;-122.946;2023-04-27T03:11:19;101208.06;;;23.98;38.47
51468;BME280;37545;45.302;-122.946;2023-04-27T03:13:48;101222.31;;;23.88;37.86
51468;BME280;37545;45.302;-122.946;2023-04-27T03:16:16;101219.84;;;23.80;40.21
51468;BME280;37545;45.302;-122.946;2023-04-27T03:18:45;101224.41;;;23.68;39.33
51468;BME280;37545;45.302;-122.946;2023-04-27T03:21:14;101228.06;;;23.60;39.14
51468;BME280;37545;45.302;-122.946;2023-04-27T03:23:45;101222.94;;;23.51;38.95
51468;BME280;37545;45.302;-122.946;2023-04-27T03:26:14;101235.38;;;23.43;39.46
51468;BME280;37545;45.302;-122.946;2023-04-27T03:28:43;101222.41;;;23.29;39.28
51468;BME280;37545;45.302;-122.946;2023-04-27T03:31:13;101230.38;;;23.28;39.94
51468;BME280;37545;45.302;-122.946;2023-04-27T03:33:42;101230.50;;;23.18;40.55
51468;BME280;37545;45.302;-122.946;2023-04-27T03:36:10;101251.75;;;23.09;39.94
51468;BME280;37545;45.302;-122.946;2023-04-27T03:38:39;101246.63;;;23.00;40.80
51468;BME280;37545;45.302;-122.946;2023-04-27T03:41:09;101252.88;;;22.88;40.56
51468;BME280;37545;45.302;-122.946;2023-04-27T03:43:38;101253.00;;;22.79;40.35
51468;BME280;37545;45.302;-122.946;2023-04-27T03:46:06;101250.47;;;22.71;40.22
51468;BME280;37545;45.302;-122.946;2023-04-27T03:48:35;101256.72;;;22.66;40.91
51468;BME280;37545;45.302;-122.946;2023-04-27T03:51:04;101259.44;;;22.58;41.56
51468;BME280;37545;45.302;-122.946;2023-04-27T03:53:33;101256.94;;;22.47;40.78
51468;BME280;37545;45.302;-122.946;2023-04-27T03:56:01;101265.78;;;22.40;41.16
51468;BME280;37545;45.302;-122.946;2023-04-27T03:58:32;101276.44;;;22.32;41.25
51468;BME280;37545;45.302;-122.946;2023-04-27T04:01:00;101277.38;;;22.27;41.61
51468;BME280;37545;45.302;-122.946;2023-04-27T04:03:29;101278.31;;;22.21;42.14
51468;BME280;37545;45.302;-122.946;2023-04-27T04:05:58;101280.97;;;22.15;42.00
51468;BME280;37545;45.302;-122.946;2023-04-27T04:08:26;101282.00;;;22.00;41.50
51468;BME280;37545;45.302;-122.946;2023-04-27T04:10:56;101287.22;;;22.03;42.54
51468;BME280;37545;45.302;-122.946;2023-04-27T04:13:24;101295.16;;;21.99;42.22
51468;BME280;37545;45.302;-122.946;2023-04-27T04:16:02;101300.53;;;21.92;42.96
51468;BME280;37545;45.302;-122.946;2023-04-27T04:18:31;101305.88;;;21.83;43.82
51468;BME280;37545;45.302;-122.946;2023-04-27T04:21:00;101311.22;;;21.71;43.71
51468;BME280;37545;45.302;-122.946;2023-04-27T04:23:29;101323.59;;;21.63;43.05
51468;BME280;37545;45.302;-122.946;2023-04-27T04:25:58;101314.84;;;21.56;43.58
51468;BME280;37545;45.302;-122.946;2023-04-27T04:28:28;101327.19;;;21.49;42.80
51468;BME280;37545;45.302;-122.946;2023-04-27T04:30:57;101321.94;;;21.43;43.85
51468;BME280;37545;45.302;-122.946;2023-04-27T04:33:28;101328.06;;;21.39;44.12
51468;BME280;37545;45.302;-122.946;2023-04-27T04:35:56;101328.13;;;21.33;43.38
51468;BME280;37545;45.302;-122.946;2023-04-27T04:38:25;101330.78;;;21.27;47.62
51468;BME280;37545;45.302;-122.946;2023-04-27T04:40:54;101315.13;;;21.05;45.79
51468;BME280;37545;45.302;-122.946;2023-04-27T04:43:23;101326.56;;;20.95;44.80
51468;BME280;37545;45.302;-122.946;2023-04-27T04:45:52;101333.63;;;20.87;44.25
51468;BME280;37545;45.302;-122.946;2023-04-27T04:48:20;101332.72;;;20.82;45.86
51468;BME280;37545;45.302;-122.946;2023-04-27T04:50:51;101332.78;;;20.76;44.92
51468;BME280;37545;45.302;-122.946;2023-04-27T04:53:19;101339.78;;;20.74;44.10
51468;BME280;37545;45.302;-122.946;2023-04-27T04:55:48;101343.31;;;20.69;44.93
51468;BME280;37545;45.302;-122.946;2023-04-27T04:58:17;101350.34;;;20.60;45.45
51468;BME280;37545;45.302;-122.946;2023-04-27T05:00:45;101347.69;;;20.52;45.70
51468;BME280;37545;45.302;-122.946;2023-04-27T05:03:14;101359.97;;;20.42;46.50
51468;BME280;37545;45.302;-122.946;2023-04-27T05:05:43;101356.47;;;20.36;45.82
51468;BME280;37545;45.302;-122.946;2023-04-27T05:08:13;101365.25;;;20.30;46.02
51468;BME280;37545;45.302;-122.946;2023-04-27T05:10:48;101362.63;;;20.22;46.26
51468;BME280;37545;45.302;-122.946;2023-04-27T05:13:17;101363.53;;;20.18;46.21
51468;BME280;37545;45.302;-122.946;2023-04-27T05:15:46;101361.75;;;20.17;46.26
51468;BME280;37545;45.302;-122.946;2023-04-27T05:18:14;101366.16;;;20.12;46.59
51468;BME280;37545;45.302;-122.946;2023-04-27T05:20:43;101363.53;;;20.09;46.23
51468;BME280;37545;45.302;-122.946;2023-04-27T05:23:13;101366.13;;;20.06;46.52
51468;BME280;37545;45.302;-122.946;2023-04-27T05:25:42;101373.13;;;20.04;46.52
51468;BME280;37545;45.302;-122.946;2023-04-27T05:28:11;101370.53;;;20.01;46.35
51468;BME280;37545;45.302;-122.946;2023-04-27T05:30:39;101369.66;;;19.96;46.58
51468;BME280;37545;45.302;-122.946;2023-04-27T05:33:08;101369.63;;;19.90;47.99
51468;BME280;37545;45.302;-122.946;2023-04-27T05:35:37;101365.25;;;19.84;46.75
51468;BME280;37545;45.302;-122.946;2023-04-27T05:38:06;101371.41;;;19.81;46.68
51468;BME280;37545;45.302;-122.946;2023-04-27T05:40:37;101368.75;;;19.75;47.45
51468;BME280;37545;45.302;-122.946;2023-04-27T05:43:05;101380.06;;;19.65;48.78
51468;BME280;37545;45.302;-122.946;2023-04-27T05:45:38;101376.56;;;19.52;48.42
51468;BME280;37545;45.302;-122.946;2023-04-27T05:48:07;101377.41;;;19.45;48.35
51468;BME280;37545;45.302;-122.946;2023-04-27T05:50:36;101383.50;;;19.39;50.51
51468;BME280;37545;45.302;-122.946;2023-04-27T05:53:05;101378.22;;;19.33;48.84
51468;BME280;37545;45.302;-122.946;2023-04-27T05:55:36;101376.47;;;19.29;48.48
51468;BME280;37545;45.302;-122.946;2023-04-27T05:58:06;101372.09;;;19.22;48.44
51468;BME280;37545;45.302;-122.946;2023-04-27T06:00:34;101372.06;;;19.19;49.65
51468;BME280;37545;45.302;-122.946;2023-04-27T06:03:03;101379.94;;;19.13;48.67
51468;BME280;37545;45.302;-122.946;2023-04-27T06:05:32;101379.03;;;19.09;48.86
51468;BME280;37545;45.302;-122.946;2023-04-27T06:08:01;101382.50;;;19.05;49.11
51468;BME280;37545;45.302;-122.946;2023-04-27T06:10:29;101379.00;;;19.01;49.13
51468;BME280;37545;45.302;-122.946;2023-04-27T06:13:06;101379.84;;;18.97;49.85
51468;BME280;37545;45.302;-122.946;2023-04-27T06:15:41;101363.22;;;18.92;49.35
51468;BME280;37545;45.302;-122.946;2023-04-27T06:18:10;101363.19;;;18.91;49.20
51468;BME280;37545;45.302;-122.946;2023-04-27T06:20:39;101367.56;;;18.90;49.77
51468;BME280;37545;45.302;-122.946;2023-04-27T06:23:08;101362.28;;;18.87;49.57
51468;BME280;37545;45.302;-122.946;2023-04-27T06:25:36;101369.28;;;18.85;49.78
51468;BME280;37545;45.302;-122.946;2023-04-27T06:28:07;101372.78;;;18.81;49.29
51468;BME280;37545;45.302;-122.946;2023-04-27T06:30:36;101371.00;;;18.77;49.51
51468;BME280;37545;45.302;-122.946;2023-04-27T06:33:12;101367.44;;;18.72;50.27
51468;BME280;37545;45.302;-122.946;2023-04-27T06:35:40;101365.69;;;18.69;49.74
51468;BME280;37545;45.302;-122.946;2023-04-27T06:38:09;101356.03;;;18.67;48.95
51468;BME280;37545;45.302;-122.946;2023-04-27T06:40:37;101362.16;;;18.66;49.48
51468;BME280;37545;45.302;-122.946;2023-04-27T06:43:08;101360.41;;;18.65;49.50
51468;BME280;37545;45.302;-122.946;2023-04-27T06:45:37;101360.38;;;18.61;49.24
51468;BME280;37545;45.302;-122.946;2023-04-27T06:48:06;101372.63;;;18.61;49.33
51468;BME280;37545;45.302;-122.946;2023-04-27T06:50:34;101377.84;;;18.59;49.28
51468;BME280;37545;45.302;-122.946;2023-04-27T06:53:03;101384.84;;;18.60;49.11
51468;BME280;37545;45.302;-122.946;2023-04-27T06:55:31;101380.47;;;18.58;49.59
51468;BME280;37545;45.302;-122.946;2023-04-27T06:58:00;101393.56;;;18.56;49.28
51468;BME280;37545;45.302;-122.946;2023-04-27T07:00:30;101394.41;;;18.52;49.55
51468;BME280;37545;45.302;-122.946;2023-04-27T07:02:59;101398.75;;;18.50;49.59
51468;BME280;37545;45.302;-122.946;2023-04-27T07:05:28;101403.09;;;18.48;49.95
51468;BME280;37545;45.302;-122.946;2023-04-27T07:07:56;101403.97;;;18.44;49.91
51468;BME280;37545;45.302;-122.946;2023-04-27T07:10:25;101403.91;;;18.38;50.02
51468;BME280;37545;45.302;-122.946;2023-04-27T07:12:54;101417.84;;;18.34;50.20
51468;BME280;37545;45.302;-122.946;2023-04-27T07:15:22;101415.19;;;18.29;50.31
51468;BME280;37545;45.302;-122.946;2023-04-27T07:17:53;101415.16;;;18.25;50.61
51468;BME280;37545;45.302;-122.946;2023-04-27T07:20:22;101409.00;;;18.23;51.02
51468;BME280;37545;45.302;-122.946;2023-04-27T07:22:50;101416.84;;;18.19;50.72
51468;BME280;37545;45.302;-122.946;2023-04-27T07:25:19;101416.78;;;18.13;50.50
51468;BME280;37545;45.302;-122.946;2023-04-27T07:27:48;101411.44;;;18.03;51.46
51468;BME280;37545;45.302;-122.946;2023-04-27T07:30:16;101419.25;;;17.98;51.42
51468;BME280;37545;45.302;-122.946;2023-04-27T07:32:45;101426.25;;;17.97;51.71
51468;BME280;37545;45.302;-122.946;2023-04-27T07:35:21;101428.00;;;17.97;51.50
51468;BME280;37545;45.302;-122.946;2023-04-27T07:37:50;101421.84;;;17.95;52.12
51468;BME280;37545;45.302;-122.946;2023-04-27T07:40:18;101410.41;;;17.85;52.87
51468;BME280;37545;45.302;-122.946;2023-04-27T07:42:49;101425.19;;;17.80;53.31
51468;BME280;37545;45.302;-122.946;2023-04-27T07:45:18;101429.50;;;17.76;52.01
51468;BME280;37545;45.302;-122.946;2023-04-27T07:47:47;101425.06;;;17.72;53.33
51468;BME280;37545;45.302;-122.946;2023-04-27T07:50:15;101429.41;;;17.70;52.62
51468;BME280;37545;45.302;-122.946;2023-04-27T07:52:52;101433.75;;;17.68;51.90
51468;BME280;37545;45.302;-122.946;2023-04-27T07:55:22;101432.00;;;17.67;51.90
51468;BME280;37545;45.302;-122.946;2023-04-27T07:57:51;101425.03;;;17.66;52.15
51468;BME280;37545;45.302;-122.946;2023-04-27T08:00:21;101429.31;;;17.61;52.63
51468;BME280;37545;45.302;-122.946;2023-04-27T08:02:52;101440.63;;;17.58;53.27
51468;BME280;37545;45.302;-122.946;2023-04-27T08:05:21;101437.97;;;17.54;52.86
51468;BME280;37545;45.302;-122.946;2023-04-27T08:07:51;101436.19;;;17.51;53.14
51468;BME280;37545;45.302;-122.946;2023-04-27T08:10:20;101440.53;;;17.48;53.11
51468;BME280;37545;45.302;-122.946;2023-04-27T08:12:48;101440.47;;;17.45;53.57
51468;BME280;37545;45.302;-122.946;2023-04-27T08:15:17;101440.44;;;17.42;53.78
51468;BME280;37545;45.302;-122.946;2023-04-27T08:17:46;101438.66;;;17.39;53.86
51468;BME280;37545;45.302;-122.946;2023-04-27T08:20:14;101437.72;;;17.35;54.52
51468;BME280;37545;45.302;-122.946;2023-04-27T08:22:43;101439.44;;;17.32;54.17
51468;BME280;37545;45.302;-122.946;2023-04-27T08:25:13;101438.53;;;17.28;53.55
51468;BME280;37545;45.302;-122.946;2023-04-27T08:27:42;101446.34;;;17.25;53.55
51468;BME280;37545;45.302;-122.946;2023-04-27T08:30:11;101436.69;;;17.21;53.78
51468;BME280;37545;45.302;-122.946;2023-04-27T08:32:40;101441.00;;;17.19;53.94
51468;BME280;37545;45.302;-122.946;2023-04-27T08:35:09;101437.50;;;17.17;54.15
51468;BME280;37545;45.302;-122.946;2023-04-27T08:37:38;101438.38;;;17.16;54.48
51468;BME280;37545;45.302;-122.946;2023-04-27T08:40:08;101440.06;;;17.12;54.40
51468;BME280;37545;45.302;-122.946;2023-04-27T08:42:39;101437.38;;;17.08;54.53
51468;BME280;37545;45.302;-122.946;2023-04-27T08:45:09;101447.81;;;17.05;54.57
51468;BME280;37545;45.302;-122.946;2023-04-27T08:47:38;101448.66;;;17.02;54.63
51468;BME280;37545;45.302;-122.946;2023-04-27T08:50:07;101444.25;;;17.00;54.84
51468;BME280;37545;45.302;-122.946;2023-04-27T08:52:36;101445.06;;;16.95;54.39
51468;BME280;37545;45.302;-122.946;2023-04-27T08:55:06;101443.25;;;16.91;55.88
51468;BME280;37545;45.302;-122.946;2023-04-27T08:57:35;101445.75;;;16.85;55.54
51468;BME280;37545;45.302;-122.946;2023-04-27T09:00:06;101444.00;;;16.83;54.97
51468;BME280;37545;45.302;-122.946;2023-04-27T09:02:44;101437.78;;;16.78;55.50
51468;BME280;37545;45.302;-122.946;2023-04-27T09:05:16;101434.97;;;16.64;55.58
51468;BME280;37545;45.302;-122.946;2023-04-27T09:07:56;101441.09;;;16.67;55.92
51468;BME280;37545;45.302;-122.946;2023-04-27T09:10:25;101434.97;;;16.64;56.32
51468;BME280;37545;45.302;-122.946;2023-04-27T09:13:00;101438.38;;;16.60;56.26
51468;BME280;37545;45.302;-122.946;2023-04-27T09:15:41;101433.09;;;16.55;55.96
51468;BME280;37545;45.302;-122.946;2023-04-27T09:18:15;101433.00;;;16.50;57.04
51468;BME280;37545;45.302;-122.946;2023-04-27T09:20:45;101434.72;;;16.48;56.46
51468;BME280;37545;45.302;-122.946;2023-04-27T09:23:25;101439.03;;;16.45;56.67
51468;BME280;37545;45.302;-122.946;2023-04-27T09:25:55;101432.00;;;16.41;57.18
51468;BME280;37545;45.302;-122.946;2023-04-27T09:28:24;101436.28;;;16.37;56.72
51468;BME280;37545;45.302;-122.946;2023-04-27T09:30:56;101434.47;;;16.33;57.36
51468;BME280;37545;45.302;-122.946;2023-04-27T09:33:25;101437.81;;;16.26;58.72
51468;BME280;37545;45.302;-122.946;2023-04-27T09:35:55;101442.06;;;16.19;60.25
51468;BME280;37545;45.302;-122.946;2023-04-27T09:38:24;101446.25;;;16.09;60.23
51468;BME280;37545;45.302;-122.946;2023-04-27T09:40:53;101436.59;;;16.04;59.85
51468;BME280;37545;45.302;-122.946;2023-04-27T09:43:22;101439.94;;;15.97;60.84
51468;BME280;37545;45.302;-122.946;2023-04-27T09:45:55;101442.47;;;15.92;63.02
51468;BME280;37545;45.302;-122.946;2023-04-27T09:48:24;101436.31;;;15.88;61.33
51468;BME280;37545;45.302;-122.946;2023-04-27T09:50:53;101434.50;;;15.86;61.24
51468;BME280;37545;45.302;-122.946;2023-04-27T09:53:25;101440.53;;;15.82;61.56
51468;BME280;37545;45.302;-122.946;2023-04-27T09:56:02;101444.81;;;15.78;61.32
51468;BME280;37545;45.302;-122.946;2023-04-27T09:58:54;101445.56;;;15.73;61.47
51468;BME280;37545;45.302;-122.946;2023-04-27T10:01:33;101450.63;;;15.66;60.84
51468;BME280;37545;45.302;-122.946;2023-04-27T10:04:26;101438.22;;;15.55;60.21
51468;BME280;37545;45.302;-122.946;2023-04-27T10:06:59;101450.44;;;15.57;63.38
51468;BME280;37545;45.302;-122.946;2023-04-27T10:09:35;101453.75;;;15.48;62.65
51468;BME280;37545;45.302;-122.946;2023-04-27T10:12:16;101448.47;;;15.44;63.84
51468;BME280;37545;45.302;-122.946;2023-04-27T10:14:49;101460.56;;;15.42;63.93
51468;BME280;37545;45.302;-122.946;2023-04-27T10:17:23;101451.84;;;15.41;63.94
51468;BME280;37545;45.302;-122.946;2023-04-27T10:19:54;101453.53;;;15.38;64.25
51468;BME280;37545;45.302;-122.946;2023-04-27T10:22:24;101446.44;;;15.31;63.75
51468;BME280;37545;45.302;-122.946;2023-04-27T10:25:14;101442.81;;;15.25;63.88
51468;BME280;37545;45.302;-122.946;2023-04-27T10:27:47;101445.34;;;15.21;65.56
51468;BME280;37545;45.302;-122.946;2023-04-27T10:30:18;101454.78;;;15.16;64.95
51468;BME280;37545;45.302;-122.946;2023-04-27T10:32:52;101452.16;;;15.14;65.79
51468;BME280;37545;45.302;-122.946;2023-04-27T10:35:22;101446.91;;;15.13;65.00
51468;BME280;37545;45.302;-122.946;2023-04-27T10:38:05;101453.81;;;15.11;65.03
51468;BME280;37545;45.302;-122.946;2023-04-27T10:40:35;101447.72;;;15.10;65.39
51468;BME280;37545;45.302;-122.946;2023-04-27T10:43:11;101452.84;;;15.07;64.36
51468;BME280;37545;45.302;-122.946;2023-04-27T10:45:40;101458.00;;;15.04;65.30
51468;BME280;37545;45.302;-122.946;2023-04-27T10:48:12;101455.97;;;14.91;67.68
51468;BME280;37545;45.302;-122.946;2023-04-27T10:50:41;101454.94;;;14.82;68.33
51468;BME280;37545;45.302;-122.946;2023-04-27T10:53:10;101457.44;;;14.79;68.27
51468;BME280;37545;45.302;-122.946;2023-04-27T10:55:39;101454.72;;;14.75;68.62
51468;BME280;37545;45.302;-122.946;2023-04-27T10:58:08;101451.94;;;14.67;68.62
51468;BME280;37545;45.302;-122.946;2023-04-27T11:00:39;101453.56;;;14.62;67.81
51468;BME280;37545;45.302;-122.946;2023-04-27T11:03:11;101457.81;;;14.58;68.64
51468;BME280;37545;45.302;-122.946;2023-04-27T11:05:41;101454.19;;;14.53;67.83
51468;BME280;37545;45.302;-122.946;2023-04-27T11:08:11;101466.28;;;14.51;68.08
51468;BME280;37545;45.302;-122.946;2023-04-27T11:10:42;101467.09;;;14.49;68.70
51468;BME280;37545;45.302;-122.946;2023-04-27T11:13:13;101458.31;;;14.45;69.50
51468;BME280;37545;45.302;-122.946;2023-04-27T11:15:46;101458.19;;;14.40;68.72
51468;BME280;37545;45.302;-122.946;2023-04-27T11:18:17;101458.19;;;14.39;69.08
51468;BME280;37545;45.302;-122.946;2023-04-27T11:20:48;101450.22;;;14.33;69.03
51468;BME280;37545;45.302;-122.946;2023-04-27T11:23:24;101454.53;;;14.32;68.58
51468;BME280;37545;45.302;-122.946;2023-04-27T11:25:54;101460.56;;;14.30;68.79
51468;BME280;37545;45.302;-122.946;2023-04-27T11:28:23;101460.47;;;14.27;68.69
51468;BME280;37545;45.302;-122.946;2023-04-27T11:30:58;101459.50;;;14.23;68.59
51468;BME280;37545;45.302;-122.946;2023-04-27T11:33:28;101472.34;;;14.17;68.75
51468;BME280;37545;45.302;-122.946;2023-04-27T11:35:57;101471.00;;;13.99;71.95
51468;BME280;37545;45.302;-122.946;2023-04-27T11:38:31;101475.81;;;13.84;73.84
51468;BME280;37545;45.302;-122.946;2023-04-27T11:41:02;101469.44;;;13.73;73.44
51468;BME280;37545;45.302;-122.946;2023-04-27T11:43:31;101482.25;;;13.67;73.23
51468;BME280;37545;45.302;-122.946;2023-04-27T11:46:02;101482.00;;;13.57;74.26
51468;BME280;37545;45.302;-122.946;2023-04-27T11:48:35;101488.78;;;13.52;73.99
51468;BME280;37545;45.302;-122.946;2023-04-27T11:51:05;101483.59;;;13.52;74.79
51468;BME280;37545;45.302;-122.946;2023-04-27T11:53:34;101483.53;;;13.51;74.36
51468;BME280;37545;45.302;-122.946;2023-04-27T11:56:04;101483.53;;;13.49;74.02
51468;BME280;37545;45.302;-122.946;2023-04-27T11:58:34;101481.66;;;13.45;73.69
51468;BME280;37545;45.302;-122.946;2023-04-27T12:01:03;101478.13;;;13.43;74.00
51468;BME280;37545;45.302;-122.946;2023-04-27T12:03:33;101482.41;;;13.41;73.40
51468;BME280;37545;45.302;-122.946;2023-04-27T12:06:03;101479.59;;;13.35;73.78
51468;BME280;37545;45.302;-122.946;2023-04-27T12:08:32;101487.25;;;13.29;74.20
51468;BME280;37545;45.302;-122.946;2023-04-27T12:11:00;101483.63;;;13.25;74.37
51468;BME280;37545;45.302;-122.946;2023-04-27T12:13:29;101483.53;;;13.22;75.28
51468;BME280;37545;45.302;-122.946;2023-04-27T12:15:57;101490.28;;;13.17;76.02
51468;BME280;37545;45.302;-122.946;2023-04-27T12:18:26;101480.59;;;13.11;76.79
51468;BME280;37545;45.302;-122.946;2023-04-27T12:20:56;101481.34;;;13.07;77.23
51468;BME280;37545;45.302;-122.946;2023-04-27T12:23:25;101481.97;;;13.00;76.78
51468;BME280;37545;45.302;-122.946;2023-04-27T12:25:54;101474.13;;;12.98;76.81
51468;BME280;37545;45.302;-122.946;2023-04-27T12:28:23;101478.44;;;12.96;77.14
51468;BME280;37545;45.302;-122.946;2023-04-27T12:30:51;101480.13;;;12.96;78.43
51468;BME280;37545;45.302;-122.946;2023-04-27T12:33:20;101480.03;;;12.93;78.71
51468;BME280;37545;45.302;-122.946;2023-04-27T12:35:49;101478.28;;;12.92;78.19
51468;BME280;37545;45.302;-122.946;2023-04-27T12:38:19;101475.63;;;12.90;77.90